Saturday, August 23, 2014, 1:30 AM EDT
Back to Local

KMPO, Mt Pocono Pocono Mountains

Location: Pocono Summit, PA, United States Lat: 41.133
Local Time: 1:30 AM EDT ( 5:30 GMT) Lon: -75.383
Time Zone: US/Eastern Elev: 1915 ft

Show me the last for .
Show Decoded

2014-08-23 00:53 METAR KMPO 230453Z AUTO 11004KT 8SM OVC019 16/15 A3009 RMK AO2 SLP185 T01610150
                 401940156 TSNO =
2014-08-22 23:53 METAR KMPO 230353Z AUTO 11006KT 8SM OVC017 16/15 A3010 RMK AO2 SLP186 T01610150
                 TSNO =
2014-08-22 23:26 METAR KMPO 230326Z AUTO 10005KT 6SM BR SCT004 SCT010 OVC016 17/15 A3010 RMK AO2
                 T01670150 TSNO =
2014-08-22 23:20 METAR KMPO 230320Z AUTO 11006KT 5SM BR BKN004 BKN010 OVC015 17/16 A3009 RMK AO2
                 CIG 003V007 T01670156 TSNO =
2014-08-22 23:02 METAR KMPO 230302Z AUTO 11008KT 5SM BR BKN005 BKN010 OVC016 17/15 A3009 RMK AO2
                 CIG 003V007 T01670150 TSNO =
2014-08-22 22:53 METAR KMPO 230253Z AUTO 11008KT 1 1/2SM BR BKN005 BKN010 OVC016 17/15 A3010 RMK
                 AO2 RAE01B11E21 CIG 002V007 SLP185 P0000 60001 T01670150 51008 TSNO =
2014-08-22 22:47 METAR KMPO 230247Z AUTO 11007KT 1 3/4SM BR BKN005 BKN010 OVC014 17/16 A3009 RMK
                 AO2 RAE01B11E21 CIG 002V008 P0000 TSNO =
2014-08-22 22:30 METAR KMPO 230230Z AUTO 10006KT 3SM BR BKN005 BKN010 OVC014 17/16 A3009 RMK AO2
                 RAE01B11E21 CIG 002V007 P0000 T01670156 TSNO =
2014-08-22 22:14 METAR KMPO 230214Z AUTO 11010KT 1 1/2SM -RA BR BKN005 OVC008 17/16 A3009 RMK AO2
                 VIS 1/2V4 RAE01B11 P0000 T01670156 TSNO =
2014-08-22 22:10 METAR KMPO 230210Z AUTO 11010KT 2 1/2SM BR SCT002 OVC008 17/16 A3009 RMK AO2
                 RAE01 P0000 T01670156 TSNO =
2014-08-22 22:02 METAR KMPO 230202Z AUTO 10011KT 5SM BR BKN002 OVC008 17/16 A3009 RMK AO2 RAE01
                 P0000 T01670156 TSNO =
2014-08-22 21:53 METAR KMPO 230153Z AUTO 10012G17KT 2SM -RA BR BKN002 OVC007 17/16 A3009 RMK AO2
                 RAE36B41 SLP185 P0001 T01670161 TSNO =
2014-08-22 21:39 METAR KMPO 230139Z AUTO 11007KT 2SM BR BKN004 OVC008 17/16 A3009 RMK AO2 RAE36
                 CIG 001V007 P0001 T01720161 TSNO =
2014-08-22 21:19 METAR KMPO 230119Z AUTO 11008KT 3SM -RA BR OVC008 17/16 A3009 RMK AO2 CIG
                 004V011 P0000 T01720161 TSNO =
2014-08-22 21:03 METAR KMPO 230103Z AUTO 12008KT 4SM -RA BR OVC005 17/16 A3009 RMK AO2 CIG
                 002V010 P0000 T01720161 TSNO =
2014-08-22 20:53 METAR KMPO 230053Z AUTO 11007KT 3SM -RA BR BKN004 OVC011 17/16 A3009 RMK AO2
                 RAB41 CIG 002V008 SLP182 P0000 T01720161 TSNO =
2014-08-22 20:41 METAR KMPO 230041Z AUTO 11006KT 3SM -RA BR OVC004 17/16 A3009 RMK AO2 RAB41 CIG
                 002V008 P0000 T01720161 TSNO =
2014-08-22 20:25 METAR KMPO 230025Z AUTO 11005KT 3SM BR BKN005 OVC012 17/16 A3008 RMK AO2 CIG
                 002V007 T01720161 TSNO =
2014-08-22 20:12 METAR KMPO 230012Z AUTO 10006KT 4SM BR BKN004 OVC013 17/16 A3007 RMK AO2 CIG
                 003V007 T01720161 TSNO =
2014-08-22 20:02 METAR KMPO 230002Z AUTO 11007KT 4SM BR SCT003 BKN009 OVC013 17/16 A3007 RMK AO2
                 T01720161 TSNO =
2014-08-22 19:53 METAR KMPO 222353Z AUTO 11007KT 4SM BR BKN003 BKN009 OVC013 17/16 A3007 RMK AO2
                 RAE2259B33E42 CIG 002V006 SLP176 P0000 60000 T01720161 10194 20172 53003 TSNO =
2014-08-22 19:12 METAR KMPO 222312Z AUTO 11006KT 3SM BR OVC002 18/17 A3007 RMK AO2 RAE2259 P0000
                 T01780167 TSNO =
2014-08-22 18:53 METAR KMPO 222253Z AUTO 10005KT 1 3/4SM -RA BR OVC003 18/17 A3006 RMK AO2 RAB50
                 SLP174 P0000 T01780167 TSNO =
2014-08-22 18:49 METAR KMPO 222249Z AUTO 12007KT 2SM BR OVC003 18/17 A3006 RMK AO2 TSNO =
2014-08-22 18:17 METAR KMPO 222217Z AUTO 11008KT 2 1/2SM BR OVC003 18/17 A3006 RMK AO2 T01830167
                 TSNO =
2014-08-22 17:53 METAR KMPO 222153Z AUTO 11006KT 5SM BR OVC003 18/17 A3006 RMK AO2 CIG 002V008
                 SLP173 T01830172 TSNO =
2014-08-22 17:43 METAR KMPO 222143Z AUTO 12006KT 3SM BR OVC005 18/17 A3006 RMK AO2 CIG 003V007
                 T01830172 TSNO =
2014-08-22 17:41 METAR KMPO 222141Z AUTO 12005KT 1SM BR OVC005 18/17 A3006 RMK AO2 CIG 003V007
                 T01830172 TSNO =
2014-08-22 17:25 METAR KMPO 222125Z AUTO 12008KT 3/4SM BR BKN006 OVC011 18/17 A3006 RMK AO2 VIS
                 M1/4V5 CIG 003V008 T01830172 TSNO =
2014-08-22 17:04 METAR KMPO 222104Z AUTO 11005KT 1/4SM FG BKN006 OVC010 19/17 A3005 RMK AO2 VIS
                 M1/4V4 CIG 003V009 T01890172 TSNO $ =
2014-08-22 16:57 METAR KMPO 222057Z AUTO 12006KT 3/4SM BR OVC007 19/17 A3005 RMK AO2 VIS M1/4V5
                 CIG 004V013 T01890172 TSNO $ =
2014-08-22 16:53 METAR KMPO 222053Z AUTO 12006KT OVC007 19/17 A3006 RMK AO2 CIG 004V012 SLP171
                 T01890172 55007 TSNO $ =
2014-08-22 16:44 METAR KMPO 222044Z AUTO 12004KT 5SM BR OVC007 19/17 A3005 RMK AO2 CIG 004V010
                 T01890172 TSNO $ =
2014-08-22 16:28 METAR KMPO 222028Z AUTO 14005KT 6SM BR OVC006 19/17 A3005 RMK AO2 CIG 004V009
                 T01890172 TSNO $ =
2014-08-22 16:11 METAR KMPO 222011Z AUTO 12008KT 9SM BKN007 OVC012 19/17 A3005 RMK AO2 CIG
                 005V010 T01890167 TSNO $ =
2014-08-22 15:53 METAR KMPO 221953Z AUTO 13005KT 9SM OVC012 19/17 A3005 RMK AO2 SLP171 T01940167
                 TSNO $ =
2014-08-22 15:38 METAR KMPO 221938Z AUTO 14006KT 4SM HZ OVC009 19/17 A3006 RMK AO2 CIG 007V013
                 T01940167 TSNO $ =
2014-08-22 15:27 METAR KMPO 221927Z AUTO 15005KT 1/2SM HZ BKN009 OVC012 19/17 A3006 RMK AO2 VIS
                 M1/4V5 CIG 005V011 T01940167 TSNO $ =
2014-08-22 15:19 METAR KMPO 221919Z AUTO 16005KT 10SM BKN008 OVC012 19/17 A3006 RMK AO2 CIG
                 005V009 T01940167 TSNO $ =
2014-08-22 15:12 METAR KMPO 221912Z AUTO 12005KT 1 3/4SM BR BKN006 OVC012 19/17 A3006 RMK AO2 CIG
                 004V011 T01890167 TSNO $ =
2014-08-22 15:03 METAR KMPO 221903Z AUTO 11005KT 1/4SM FG OVC006 19/17 A3006 RMK AO2 CIG 004V011
                 T01890167 TSNO $ =
2014-08-22 14:53 METAR KMPO 221853Z AUTO 13007KT 8SM OVC006 19/17 A3006 RMK AO2 CIG 004V010
                 SLP174 T01890167 TSNO =
2014-08-22 14:13 METAR KMPO 221813Z AUTO 17004KT 4SM BR OVC005 18/17 A3007 RMK AO2 CIG 003V009
                 T01830167 TSNO =
2014-08-22 14:03 METAR KMPO 221803Z AUTO 15006KT 1SM BR OVC005 18/17 A3007 RMK AO2 CIG 003V009
                 T01830167 TSNO =
2014-08-22 13:53 METAR KMPO 221753Z AUTO 15006KT 3/4SM BR OVC003 18/16 A3008 RMK AO2 VIS M1/4V5
                 CIG 002V008 SLP179 T01780161 10183 20167 56004 TSNO =
2014-08-22 13:36 METAR KMPO 221736Z AUTO 14005KT 3SM BR OVC002 18/17 A3008 RMK AO2 T01780167 TSNO
                 $ =
2014-08-22 13:31 METAR KMPO 221731Z AUTO 14006KT 1 1/4SM BR OVC003 18/17 A3008 RMK AO2 T01780167
                 TSNO $ =
2014-08-22 13:21 METAR KMPO 221721Z AUTO 13006KT 3SM BR OVC003 18/17 A3007 RMK AO2 T01780167 TSNO
                 $ =
2014-08-22 12:57 METAR KMPO 221657Z AUTO 18004KT 1SM BR BKN003 OVC009 18/17 A3008 RMK AO2
                 T01830167 TSNO $ =
2014-08-22 12:53 METAR KMPO 221653Z AUTO 16004KT 9SM SCT004 OVC009 18/17 A3008 RMK AO2 SLP180
                 T01830167 TSNO =
2014-08-22 12:36 METAR KMPO 221636Z AUTO 14004KT 9SM OVC004 18/16 A3008 RMK AO2 CIG 003V007
                 T01780161 TSNO =
2014-08-22 12:18 METAR KMPO 221618Z AUTO 13006KT 1 1/2SM BR OVC004 18/17 A3008 RMK AO2 T01830167
                 TSNO $ =
2014-08-22 11:53 METAR KMPO 221553Z AUTO 15004KT 10SM OVC005 18/16 A3008 RMK AO2 CIG 003V010
                 SLP182 T01830161 TSNO =
2014-08-22 11:42 METAR KMPO 221542Z AUTO 15006KT 10SM OVC005 18/16 A3009 RMK AO2 CIG 004V010
                 T01830161 TSNO =
2014-08-22 10:53 METAR KMPO 221453Z AUTO 14006KT 5SM BR OVC001 17/16 A3009 RMK AO2 SLP184
                 T01720161 51010 TSNO =
2014-08-22 10:49 METAR KMPO 221449Z AUTO 13004KT 3SM BR OVC001 17/17 A3009 RMK AO2 TSNO =
2014-08-22 10:46 METAR KMPO 221446Z AUTO 13003KT 1 1/4SM BR OVC001 17/17 A3009 RMK AO2 T01720167
                 TSNO =
2014-08-22 09:53 METAR KMPO 221353Z AUTO 13005KT M1/4SM FG VV001 17/16 A3009 RMK AO2 SLP182
                 T01670161 TSNO =
2014-08-22 08:53 METAR KMPO 221253Z AUTO 13006KT M1/4SM FG VV001 17/16 A3007 RMK AO2 SLP176
                 T01670161 TSNO =
2014-08-22 07:53 METAR KMPO 221153Z AUTO 13007KT M1/4SM FG VV001 17/16 A3006 RMK AO2 SLP170 60024
                 70082 T01720161 10172 20156 53007 TSNO =
2014-08-22 06:53 METAR KMPO 221053Z AUTO 12003KT M1/4SM FG VV001 17/16 A3004 RMK AO2 SLP164
                 T01670161 TSNO =
2014-08-22 05:53 METAR KMPO 220953Z AUTO 11004KT M1/4SM FG VV001 17/16 A3004 RMK AO2 SLP163
                 T01670161 TSNO =
2014-08-22 05:15 METAR KMPO 220915Z AUTO 11003KT 1/4SM FG VV001 17/16 A3004 RMK AO2 T01670156
                 TSNO =
2014-08-22 05:04 METAR KMPO 220904Z AUTO 10003KT 3/4SM BR BKN002 BKN070 17/16 A3004 RMK AO2
                 T01670156 TSNO =
2014-08-22 04:58 METAR KMPO 220858Z AUTO 10003KT 2 1/2SM BR BKN002 BKN070 17/16 A3004 RMK AO2
                 T01670156 TSNO =
2014-08-22 04:53 METAR KMPO 220853Z AUTO 11004KT 6SM BR SCT003 BKN070 16/15 A3004 RMK AO2 SLP162
                 60024 T01610150 56001 TSNO =
2014-08-22 04:20 METAR KMPO 220820Z AUTO 00000KT 3SM BR BKN043 16/15 A3004 RMK AO2 T01610150 TSNO
                 =
2014-08-22 04:09 METAR KMPO 220809Z AUTO 00000KT 1 3/4SM BR FEW025 BKN043 16/15 A3004 RMK AO2
                 T01610150 TSNO =
2014-08-22 02:53 METAR KMPO 220653Z AUTO 22003KT 10SM FEW030 SCT070 OVC095 17/16 A3004 RMK AO2
                 RAE49 SLP162 P0023 T01670161 TSNO =
2014-08-22 02:46 METAR KMPO 220646Z AUTO 22004KT 9SM -RA FEW036 BKN075 OVC100 17/16 A3004 RMK AO2
                 P0023 T01720161 TSNO =
2014-08-22 02:36 METAR KMPO 220636Z AUTO 22004KT 2SM RA BR SCT040 BKN060 OVC075 17/16 A3004 RMK
                 AO2 P0023 T01720156 TSNO =
2014-08-22 02:29 METAR KMPO 220629Z AUTO 00000KT 3SM RA BR SCT042 BKN055 OVC070 17/16 A3004 RMK
                 AO2 P0020 T01720161 TSNO =
2014-08-22 02:09 METAR KMPO 220609Z AUTO 00000KT 2SM +RA BR FEW039 BKN048 OVC075 17/16 A3005 RMK
                 AO2 P0010 T01720161 TSNO =
2014-08-22 01:53 METAR KMPO 220553Z AUTO 00000KT 1 1/4SM +RA BR FEW002 SCT033 OVC048 17/16 A3006
                 RMK AO2 SLP168 P0014 60054 T01720161 10217 20172 55004 TSNO =
2014-08-22 01:46 METAR KMPO 220546Z AUTO 21003KT 2 1/2SM RA BR SCT002 BKN033 OVC060 17/16 A3005
                 RMK AO2 P0008 T01720161 TSNO =

Support USWX by starting your Amazon purchase here.